Flugplatz Schleswig Airport

Bericht für ETNS

vom 07.03. um 01:20 UTC

Wind 14 kt aus 280°

Temperatur 3.0°C

Taupunkt -1.0°C

Luftfeuchtigkeit 75%

Luftdruck 1024 hPa

ETNS 070120Z AUTO 28014KT //// // ////// 03/M01 Q1024 ///
Keine Prognose (TAF) verfügbar.
Impressum